createdAt,value
2022-11-02T00:01:27.199Z,5.57
2022-11-02T00:03:55.471Z,6.78
2022-11-02T00:06:23.675Z,19.88
2022-11-02T00:08:51.874Z,8.35
2022-11-02T00:11:19.961Z,3.85
2022-11-02T00:13:49.504Z,10.32
2022-11-02T00:16:20.230Z,8.98
2022-11-02T00:18:52.677Z,4.28
2022-11-02T00:21:22.781Z,11.43
2022-11-02T00:23:51.374Z,9.13
2022-11-02T00:26:20.107Z,6.78
2022-11-02T00:28:49.997Z,7.43
2022-11-02T00:31:18.170Z,4.65
2022-11-02T00:33:46.235Z,10.80
2022-11-02T00:36:14.382Z,9.38
2022-11-02T00:38:42.552Z,4.35
2022-11-02T00:41:10.689Z,8.45
2022-11-02T00:43:38.909Z,10.85
2022-11-02T00:46:08.526Z,14.20
2022-11-02T00:48:36.580Z,7.38
2022-11-02T00:51:05.035Z,7.45
2022-11-02T00:53:33.136Z,8.13
2022-11-02T00:56:01.285Z,7.53
2022-11-02T00:58:29.589Z,7.65
2022-11-02T01:00:57.874Z,9.50
2022-11-02T01:03:27.643Z,4.65
2022-11-02T01:05:55.871Z,13.40
2022-11-02T01:08:24.124Z,5.85
2022-11-02T01:10:52.488Z,6.68
2022-11-02T01:13:20.765Z,13.70
2022-11-02T01:15:48.891Z,7.88
2022-11-02T01:18:17.064Z,5.20
2022-11-02T01:20:46.689Z,3.03
2022-11-02T01:23:14.861Z,6.78
2022-11-02T01:25:46.994Z,7.65
2022-11-02T01:28:15.185Z,6.45
2022-11-02T01:30:43.388Z,6.35
2022-11-02T01:33:11.651Z,2.58
2022-11-02T01:35:39.923Z,4.90
2022-11-02T01:38:09.592Z,7.82
2022-11-02T01:40:38.507Z,7.15
2022-11-02T01:43:23.871Z,6.68
2022-11-02T01:45:55.497Z,8.43
2022-11-02T01:48:29.710Z,4.00
2022-11-02T01:50:58.917Z,10.43
2022-11-02T01:53:28.759Z,5.28
2022-11-02T01:55:57.889Z,7.22
2022-11-02T01:58:26.263Z,4.47
2022-11-02T02:00:55.804Z,4.20
2022-11-02T02:03:24.089Z,11.55
2022-11-02T02:05:57.967Z,6.85
2022-11-02T02:08:28.657Z,3.80
2022-11-02T02:10:57.836Z,4.57
2022-11-02T02:13:28.350Z,8.95
2022-11-02T02:16:10.425Z,4.55
2022-11-02T02:18:43.390Z,4.20
2022-11-02T02:21:26.681Z,3.72
2022-11-02T02:24:22.157Z,4.22
2022-11-02T02:27:05.445Z,2.90
2022-11-02T02:29:45.496Z,5.45
2022-11-02T02:32:20.144Z,1.45
2022-11-02T02:34:54.430Z,3.60
2022-11-02T02:37:28.579Z,4.57
2022-11-02T02:40:04.080Z,7.20
2022-11-02T02:42:36.525Z,11.07
2022-11-02T02:45:13.466Z,3.05
2022-11-02T02:47:48.521Z,5.10
2022-11-02T02:50:22.129Z,8.77
2022-11-02T02:52:52.859Z,3.53
2022-11-02T02:55:24.536Z,3.58
2022-11-02T02:57:55.764Z,6.40
2022-11-02T03:00:25.407Z,4.63
2022-11-02T03:03:02.027Z,4.35
2022-11-02T03:05:33.993Z,2.15
2022-11-02T03:08:07.066Z,4.10
2022-11-02T03:10:43.537Z,3.85
2022-11-02T03:13:21.791Z,4.50
2022-11-02T03:15:59.859Z,7.53
2022-11-02T03:18:39.876Z,3.35
2022-11-02T03:21:15.624Z,4.38
2022-11-02T03:23:50.529Z,4.40
2022-11-02T03:26:25.874Z,6.47
2022-11-02T03:29:01.734Z,8.65
2022-11-02T03:31:39.199Z,3.85
2022-11-02T03:34:17.329Z,5.88
2022-11-02T03:36:50.445Z,7.88
2022-11-02T03:39:23.638Z,4.65
2022-11-02T03:41:54.788Z,6.82
2022-11-02T03:44:27.030Z,4.53
2022-11-02T03:47:00.492Z,6.25
2022-11-02T03:49:31.031Z,4.63
2022-11-02T03:52:03.468Z,6.70
2022-11-02T03:54:43.808Z,3.92
2022-11-02T03:57:19.853Z,8.88
2022-11-02T03:59:47.976Z,11.00
2022-11-02T04:02:19.877Z,7.80
2022-11-02T04:04:52.314Z,7.70
2022-11-02T04:07:25.671Z,3.25
2022-11-02T04:09:53.776Z,4.43
2022-11-02T04:12:39.703Z,5.82
2022-11-02T04:15:09.648Z,5.32
2022-11-02T04:17:56.692Z,5.88
2022-11-02T04:20:24.937Z,4.05
2022-11-02T04:23:10.751Z,14.80
2022-11-02T04:25:38.898Z,7.63
2022-11-02T04:28:10.923Z,3.55
2022-11-02T04:30:39.094Z,4.80
2022-11-02T04:33:25.957Z,8.27
2022-11-02T04:35:54.042Z,9.70
2022-11-02T04:38:45.725Z,6.30
2022-11-02T04:41:32.676Z,3.80
2022-11-02T04:44:01.146Z,6.40
2022-11-02T04:46:31.713Z,3.85
2022-11-02T04:49:01.329Z,6.32
2022-11-02T04:51:31.058Z,3.80
2022-11-02T04:54:00.079Z,8.50
2022-11-02T04:56:29.502Z,5.22
2022-11-02T04:58:59.161Z,3.20
2022-11-02T05:01:29.011Z,4.88
2022-11-02T05:03:57.974Z,8.90
2022-11-02T05:06:27.551Z,6.88
2022-11-02T05:08:55.819Z,9.50
2022-11-02T05:11:24.446Z,3.58
2022-11-02T05:13:52.664Z,8.38
2022-11-02T05:16:20.939Z,6.40
2022-11-02T05:18:49.301Z,14.13
2022-11-02T05:21:17.412Z,5.18
2022-11-02T05:23:47.012Z,5.35
2022-11-02T05:26:15.376Z,6.38
2022-11-02T05:28:43.544Z,12.02
2022-11-02T05:31:11.713Z,9.45
2022-11-02T05:33:39.982Z,12.57
2022-11-02T05:36:08.522Z,6.80
2022-11-02T05:38:36.830Z,5.95
2022-11-02T05:41:06.676Z,5.07
2022-11-02T05:43:34.924Z,16.58
2022-11-02T05:46:04.432Z,4.45
2022-11-02T05:48:34.200Z,9.02
2022-11-02T05:51:04.980Z,12.02
2022-11-02T05:53:34.311Z,10.10
2022-11-02T05:56:03.600Z,7.10
2022-11-02T05:58:35.212Z,7.72
2022-11-02T06:03:32.906Z,7.03
2022-11-02T06:06:02.542Z,7.75
2022-11-02T06:08:33.261Z,9.02
2022-11-02T06:11:05.581Z,8.88
2022-11-02T06:13:35.619Z,10.05
2022-11-02T06:16:05.273Z,9.88
2022-11-02T06:18:33.545Z,20.85
2022-11-02T06:21:02.274Z,12.00
2022-11-02T06:23:31.163Z,13.45
2022-11-02T06:26:00.938Z,14.93
2022-11-02T06:28:29.837Z,11.85
2022-11-02T06:30:59.884Z,10.57
2022-11-02T06:33:29.701Z,18.88
2022-11-02T06:35:59.371Z,19.65
2022-11-02T06:38:27.660Z,15.35
2022-11-02T06:40:57.355Z,12.95
2022-11-02T06:43:26.060Z,18.50
2022-11-02T06:45:56.449Z,10.32
2022-11-02T06:48:31.536Z,10.05
2022-11-02T06:51:03.512Z,8.40
2022-11-02T06:53:31.830Z,19.70
2022-11-02T06:56:01.122Z,13.10
2022-11-02T06:58:29.626Z,15.65
2022-11-02T07:01:01.615Z,16.17
2022-11-02T07:03:32.005Z,15.30
2022-11-02T07:06:00.863Z,15.68
2022-11-02T07:08:29.666Z,11.55
2022-11-02T07:10:58.205Z,18.17
2022-11-02T07:13:26.422Z,16.00
2022-11-02T07:15:54.856Z,22.25
2022-11-02T07:18:23.036Z,13.95
2022-11-02T07:20:52.658Z,18.77
2022-11-02T07:23:23.980Z,14.50
2022-11-02T07:25:53.164Z,18.88
2022-11-02T07:28:22.211Z,13.88
2022-11-02T07:30:50.548Z,18.95
2022-11-02T07:33:18.720Z,17.88
2022-11-02T07:35:46.894Z,19.95
2022-11-02T07:38:16.507Z,20.17
2022-11-02T07:40:44.775Z,23.73
2022-11-02T07:43:12.885Z,22.15
2022-11-02T07:45:41.000Z,17.10
2022-11-02T07:48:09.159Z,27.08
2022-11-02T07:50:37.301Z,22.58
2022-11-02T07:53:06.053Z,22.65
2022-11-02T07:55:35.911Z,17.90
2022-11-02T07:58:05.767Z,17.02
2022-11-02T08:00:35.566Z,23.40
2022-11-02T08:03:05.819Z,19.55
2022-11-02T08:05:36.519Z,24.23
2022-11-02T08:08:06.576Z,29.55
2022-11-02T08:10:40.489Z,28.20
2022-11-02T08:13:09.286Z,26.52
2022-11-02T08:15:37.645Z,23.95
2022-11-02T08:18:07.212Z,23.95
2022-11-02T08:20:37.143Z,20.65
2022-11-02T08:23:06.020Z,20.17
2022-11-02T08:25:34.125Z,17.33
2022-11-02T08:28:04.388Z,12.30
2022-11-02T08:30:33.797Z,12.25
2022-11-02T08:33:05.266Z,14.40
2022-11-02T08:38:01.989Z,16.33
2022-11-02T08:40:30.457Z,14.15
2022-11-02T08:42:58.848Z,14.00
2022-11-02T08:45:28.556Z,9.57
2022-11-02T08:47:57.191Z,15.30
2022-11-02T08:50:26.612Z,17.65
2022-11-02T08:52:54.978Z,14.50
2022-11-02T08:55:23.199Z,20.27
2022-11-02T08:57:52.761Z,11.45
2022-11-02T09:00:22.707Z,19.80
2022-11-02T09:03:03.528Z,21.23
2022-11-02T09:05:32.265Z,26.55
2022-11-02T09:08:02.379Z,27.73
2022-11-02T09:10:33.297Z,25.90
2022-11-02T09:13:03.495Z,29.55
2022-11-02T09:15:31.990Z,19.40
2022-11-02T09:18:01.799Z,20.42
2022-11-02T09:20:30.181Z,15.20
2022-11-02T09:22:58.609Z,18.65
2022-11-02T09:25:27.109Z,10.75
2022-11-02T09:27:56.305Z,17.27
2022-11-02T09:30:25.478Z,11.40
2022-11-02T09:32:56.952Z,12.00
2022-11-02T09:35:27.689Z,12.25
2022-11-02T09:37:55.874Z,9.98
2022-11-02T09:40:25.779Z,13.65
2022-11-02T09:43:04.623Z,11.98
2022-11-02T09:45:37.580Z,11.82
2022-11-02T09:48:19.890Z,8.73
2022-11-02T09:51:01.993Z,10.13
2022-11-02T09:53:40.954Z,8.45
2022-11-02T09:56:10.492Z,15.77
2022-11-02T09:58:40.606Z,19.83
2022-11-02T10:01:23.296Z,12.13
2022-11-02T10:04:10.756Z,15.18
2022-11-02T10:06:51.878Z,11.30
2022-11-02T10:09:28.621Z,13.13
2022-11-02T10:12:05.498Z,7.78
2022-11-02T10:14:37.239Z,6.45
2022-11-02T10:17:14.075Z,4.80
2022-11-02T10:19:46.045Z,17.77
2022-11-02T10:22:17.221Z,8.90
2022-11-02T10:24:47.997Z,10.50
2022-11-02T10:27:22.625Z,10.32
2022-11-02T10:29:56.669Z,8.55
2022-11-02T10:32:25.083Z,10.90
2022-11-02T10:34:59.091Z,6.70
2022-11-02T10:37:50.924Z,9.48
2022-11-02T10:40:32.819Z,8.55
2022-11-02T10:43:13.056Z,8.32
2022-11-02T10:46:08.616Z,8.93
2022-11-02T10:48:47.177Z,6.57
2022-11-02T10:51:17.823Z,9.38
2022-11-02T10:53:49.605Z,6.30
2022-11-02T10:56:19.584Z,6.35
2022-11-02T10:58:55.865Z,8.27
2022-11-02T11:01:24.121Z,6.07
2022-11-02T11:03:58.558Z,9.45
2022-11-02T11:06:29.947Z,8.10
2022-11-02T11:09:06.511Z,9.15
2022-11-02T11:11:37.251Z,8.77
2022-11-02T11:19:51.222Z,16.70
2022-11-02T11:22:28.372Z,10.73
2022-11-02T11:25:27.199Z,17.08
2022-11-02T11:27:57.496Z,8.73
2022-11-02T11:30:53.941Z,12.20
2022-11-02T11:33:18.701Z,10.90
2022-11-02T11:35:51.805Z,12.50
2022-11-02T11:38:22.443Z,10.50
2022-11-02T11:40:55.117Z,13.43
2022-11-02T11:43:27.280Z,3.70
2022-11-02T11:46:04.817Z,10.55
2022-11-02T11:48:39.209Z,7.93
2022-11-02T11:51:31.487Z,7.03
2022-11-02T11:54:22.536Z,6.18
2022-11-02T11:56:54.613Z,5.10
2022-11-02T11:59:29.496Z,8.15
2022-11-02T12:02:00.436Z,10.45
2022-11-02T12:04:33.886Z,8.70
2022-11-02T12:07:32.127Z,9.88
2022-11-02T12:10:10.379Z,9.70
2022-11-02T12:13:06.556Z,6.47
2022-11-02T12:15:48.794Z,10.88
2022-11-02T12:18:35.191Z,7.60
2022-11-02T12:21:15.653Z,9.02
2022-11-02T12:24:15.706Z,4.15
2022-11-02T12:26:56.757Z,4.00
2022-11-02T12:29:45.860Z,4.93
2022-11-02T12:32:27.378Z,5.95
2022-11-02T12:35:32.826Z,1.00
2022-11-02T12:38:35.151Z,3.40
2022-11-02T12:41:05.878Z,0.80
2022-11-02T12:43:41.394Z,1.80
2022-11-02T12:46:26.471Z,4.90
2022-11-02T12:49:08.063Z,7.30
2022-11-02T12:51:41.600Z,3.60
2022-11-02T12:54:13.207Z,7.32
2022-11-02T12:59:19.490Z,7.53
2022-11-02T13:01:53.085Z,7.72
2022-11-02T13:04:29.573Z,4.50
2022-11-02T13:07:05.549Z,10.10
2022-11-02T13:09:38.176Z,13.32
2022-11-02T13:12:12.804Z,13.43
2022-11-02T13:14:44.028Z,14.25
2022-11-02T13:17:19.979Z,13.77
2022-11-02T13:19:53.308Z,18.80
2022-11-02T13:22:25.522Z,18.27
2022-11-02T13:25:03.281Z,21.77
2022-11-02T13:27:37.174Z,17.52
2022-11-02T13:30:15.578Z,17.83
2022-11-02T13:32:48.326Z,23.00
2022-11-02T13:35:21.841Z,17.75
2022-11-02T13:37:55.010Z,14.55
2022-11-02T13:40:26.818Z,12.38
2022-11-02T13:43:29.304Z,30.27
2022-11-02T13:46:27.586Z,24.77
2022-11-02T13:49:02.133Z,22.77
2022-11-02T13:51:39.346Z,20.52
2022-11-02T13:54:14.323Z,14.90
2022-11-02T13:56:43.656Z,21.67
2022-11-02T13:59:21.972Z,21.33
2022-11-02T14:01:53.098Z,22.55
2022-11-02T14:04:23.563Z,19.33
2022-11-02T14:06:57.576Z,19.25
2022-11-02T14:09:31.195Z,28.67
2022-11-02T14:12:28.398Z,24.40
2022-11-02T14:15:33.623Z,26.27
2022-11-02T14:18:14.192Z,27.73
2022-11-02T14:20:46.631Z,33.35
2022-11-02T14:23:38.880Z,24.27
2022-11-02T14:26:54.816Z,32.13
2022-11-02T14:29:40.914Z,27.33
2022-11-02T14:32:18.144Z,32.83
2022-11-02T14:35:00.742Z,31.42
2022-11-02T14:37:44.593Z,22.50
2022-11-02T14:40:26.260Z,32.08
2022-11-02T14:43:14.574Z,26.48
2022-11-02T14:46:09.385Z,27.70
2022-11-02T14:48:48.945Z,34.17
2022-11-02T14:51:21.862Z,32.83
2022-11-02T14:53:57.334Z,35.13
2022-11-02T14:56:26.091Z,25.90
2022-11-02T14:58:58.368Z,31.17
2022-11-02T15:01:26.779Z,31.30
2022-11-02T15:03:55.729Z,30.40
2022-11-02T15:06:27.069Z,37.58
2022-11-02T15:08:59.253Z,32.58
2022-11-02T15:11:49.226Z,39.28
2022-11-02T15:14:34.528Z,35.47
2022-11-02T15:17:03.227Z,39.80
2022-11-02T15:19:39.289Z,41.22
2022-11-02T15:22:34.319Z,29.48
2022-11-02T15:25:11.091Z,26.15
2022-11-02T15:27:42.391Z,26.00
2022-11-02T15:30:15.867Z,27.15
2022-11-02T15:32:48.719Z,33.20
2022-11-02T15:35:20.388Z,24.50
2022-11-02T15:38:11.415Z,33.67
2022-11-02T15:40:48.637Z,28.40
2022-11-02T15:43:41.426Z,26.17
2022-11-02T15:46:18.835Z,28.45
2022-11-02T15:48:54.781Z,34.38
2022-11-02T15:51:31.299Z,22.83
2022-11-02T15:54:19.075Z,20.23
2022-11-02T15:57:08.984Z,40.60
2022-11-02T15:59:52.682Z,22.25
2022-11-02T16:02:27.374Z,32.78
2022-11-02T16:04:58.107Z,19.25
2022-11-02T16:07:33.566Z,28.23
2022-11-02T16:10:23.954Z,29.08
2022-11-02T16:13:12.511Z,24.75
2022-11-02T16:15:42.691Z,31.95
2022-11-02T16:18:28.204Z,24.38
2022-11-02T16:21:00.809Z,24.08
2022-11-02T16:23:32.351Z,21.67
2022-11-02T16:28:33.021Z,21.30
2022-11-02T16:31:15.863Z,30.17
2022-11-02T16:33:48.453Z,15.77
2022-11-02T16:36:19.126Z,26.52
2022-11-02T16:38:50.060Z,26.70
2022-11-02T16:41:18.766Z,22.27
2022-11-02T16:43:51.345Z,25.52
2022-11-02T16:46:29.189Z,21.23
2022-11-02T16:49:15.117Z,25.13
2022-11-02T16:51:50.198Z,19.67
2022-11-02T16:54:25.242Z,13.02
2022-11-02T16:56:54.996Z,24.35
2022-11-02T16:59:25.696Z,22.73
2022-11-02T17:02:00.126Z,22.53
2022-11-02T17:04:31.736Z,19.13
2022-11-02T17:07:09.312Z,19.17
2022-11-02T17:09:38.117Z,17.60
2022-11-02T17:12:09.134Z,14.82
2022-11-02T17:14:54.864Z,23.33
2022-11-02T17:17:36.448Z,12.98
2022-11-02T17:22:40.587Z,18.08
2022-11-02T17:25:20.577Z,12.67
2022-11-02T17:27:49.251Z,12.35
2022-11-02T17:30:53.145Z,11.73
2022-11-02T17:33:26.767Z,18.02
2022-11-02T17:35:57.084Z,15.07
2022-11-02T17:38:28.037Z,13.60
2022-11-02T17:40:56.970Z,21.33
2022-11-02T17:43:24.357Z,14.60
2022-11-02T17:45:58.481Z,15.18
2022-11-02T17:48:29.051Z,18.35
2022-11-02T17:51:00.025Z,18.57
2022-11-02T17:53:28.609Z,12.80
2022-11-02T17:55:57.580Z,13.40
2022-11-02T17:58:25.824Z,15.10
2022-11-02T18:00:55.618Z,19.48
2022-11-02T18:03:30.007Z,13.35
2022-11-02T18:06:00.852Z,11.93
2022-11-02T18:08:29.558Z,16.00
2022-11-02T18:10:58.433Z,10.73
2022-11-02T18:13:26.561Z,13.90
2022-11-02T18:15:54.705Z,9.90
2022-11-02T18:18:23.377Z,15.20
2022-11-02T18:20:53.072Z,10.30
2022-11-02T18:23:21.204Z,7.45
2022-11-02T18:25:51.814Z,14.27
2022-11-02T18:28:23.478Z,13.05
2022-11-02T18:30:51.608Z,7.20
2022-11-02T18:33:19.923Z,12.77
2022-11-02T18:35:48.173Z,10.40
2022-11-02T18:38:18.196Z,7.50
2022-11-02T18:40:46.370Z,9.43
2022-11-02T18:43:14.568Z,5.50
2022-11-02T18:45:42.824Z,8.60
2022-11-02T18:48:11.102Z,8.73
2022-11-02T18:50:39.438Z,7.68
2022-11-02T18:53:07.465Z,9.25
2022-11-02T18:55:39.706Z,10.98
2022-11-02T18:58:08.339Z,5.40
2022-11-02T19:00:36.902Z,6.53
2022-11-02T19:03:05.944Z,11.23
2022-11-02T19:05:51.071Z,10.40
2022-11-02T19:08:36.708Z,7.53
2022-11-02T19:11:09.012Z,6.05
2022-11-02T19:13:37.448Z,11.15
2022-11-02T19:16:06.042Z,8.90
2022-11-02T19:18:34.902Z,9.35
2022-11-02T19:21:03.309Z,7.13
2022-11-02T19:23:31.854Z,8.38
2022-11-02T19:26:00.068Z,9.98
2022-11-02T19:28:31.677Z,5.30
2022-11-02T19:33:30.337Z,12.43
2022-11-02T19:35:59.915Z,24.92
2022-11-02T19:38:28.877Z,44.30
2022-11-02T19:41:03.780Z,49.33
2022-11-02T19:43:33.703Z,7.60
2022-11-02T19:46:02.843Z,8.98
2022-11-02T19:48:31.542Z,6.13
2022-11-02T19:51:07.141Z,8.65
2022-11-02T19:53:36.076Z,9.68
2022-11-02T19:56:04.729Z,4.63
2022-11-02T19:58:34.765Z,5.30
2022-11-02T20:01:07.261Z,6.40
2022-11-02T20:03:36.047Z,6.93
2022-11-02T20:06:06.345Z,5.25
2022-11-02T20:08:35.211Z,5.80
2022-11-02T20:11:04.767Z,7.50
2022-11-02T20:13:37.313Z,7.55
2022-11-02T20:16:08.000Z,7.28
2022-11-02T20:18:37.445Z,6.10
2022-11-02T20:21:07.304Z,7.00
2022-11-02T20:23:36.103Z,2.72
2022-11-02T20:26:11.346Z,4.40
2022-11-02T20:28:44.327Z,2.25
2022-11-02T20:31:15.824Z,6.63
2022-11-02T20:36:13.208Z,4.43
2022-11-02T20:38:42.402Z,3.47
2022-11-02T20:41:12.204Z,5.30
2022-11-02T20:43:45.495Z,6.32
2022-11-02T20:46:36.575Z,6.47
2022-11-02T20:51:51.777Z,5.05
2022-11-02T20:54:21.177Z,6.60
2022-11-02T20:56:50.584Z,5.35
2022-11-02T20:59:20.639Z,5.90
2022-11-02T21:01:49.498Z,3.40
2022-11-02T21:04:21.350Z,7.85
2022-11-02T21:06:50.729Z,11.93
2022-11-02T21:09:20.136Z,11.07
2022-11-02T21:12:05.999Z,13.15
2022-11-02T21:14:36.592Z,10.80
2022-11-02T21:17:07.445Z,6.63
2022-11-02T21:19:37.014Z,6.70
2022-11-02T21:22:05.615Z,7.68
2022-11-02T21:24:34.055Z,4.18
2022-11-02T21:27:02.638Z,7.63
2022-11-02T21:29:31.631Z,6.05
2022-11-02T21:32:02.822Z,3.92
2022-11-02T21:34:31.657Z,1.75
2022-11-02T21:37:01.145Z,3.67
2022-11-02T21:39:29.694Z,6.43
2022-11-02T21:41:58.328Z,2.28
2022-11-02T21:44:27.111Z,1.85
2022-11-02T21:46:56.389Z,5.10
2022-11-02T21:49:26.795Z,2.17
2022-11-02T21:51:55.332Z,2.55
2022-11-02T21:54:24.085Z,2.25
2022-11-02T21:56:52.330Z,4.03
2022-11-02T21:59:20.668Z,4.90
2022-11-02T22:01:49.526Z,3.28
2022-11-02T22:04:24.949Z,4.70
2022-11-02T22:06:55.249Z,3.03
2022-11-02T22:09:24.006Z,3.55
2022-11-02T22:12:14.548Z,3.20
2022-11-02T22:14:44.239Z,5.25
2022-11-02T22:17:28.336Z,3.85
2022-11-02T22:20:01.731Z,3.40
2022-11-02T22:22:31.577Z,3.42
2022-11-02T22:24:59.701Z,3.38
2022-11-02T22:27:27.966Z,1.90
2022-11-02T22:29:56.225Z,3.13
2022-11-02T22:32:24.563Z,3.70
2022-11-02T22:34:52.994Z,2.25
2022-11-02T22:37:41.173Z,3.78
2022-11-02T22:40:11.644Z,2.67
2022-11-02T22:42:42.457Z,3.45
2022-11-02T22:45:12.192Z,5.45
2022-11-02T22:47:40.285Z,4.60
2022-11-02T22:50:09.517Z,4.72
2022-11-02T22:52:37.872Z,1.88
2022-11-02T22:55:06.610Z,7.63
2022-11-02T22:57:36.142Z,4.47
2022-11-02T23:00:05.404Z,5.13
2022-11-02T23:02:33.632Z,4.22
2022-11-02T23:05:01.794Z,3.22
2022-11-02T23:07:29.930Z,5.55
2022-11-02T23:09:58.070Z,6.88
2022-11-02T23:12:25.204Z,7.40
2022-11-02T23:14:55.161Z,7.43
2022-11-02T23:17:23.343Z,2.88
2022-11-02T23:19:50.486Z,5.00
2022-11-02T23:22:36.102Z,6.47
2022-11-02T23:25:17.130Z,3.22
2022-11-02T23:28:00.408Z,3.78
2022-11-02T23:30:49.155Z,2.50
2022-11-02T23:33:18.708Z,1.73
2022-11-02T23:36:04.195Z,4.38
2022-11-02T23:38:46.633Z,3.08
2022-11-02T23:41:14.809Z,1.88
2022-11-02T23:43:43.088Z,2.70
2022-11-02T23:46:13.457Z,5.07
2022-11-02T23:48:42.761Z,2.13
2022-11-02T23:51:28.848Z,4.43
2022-11-02T23:54:14.662Z,3.20
2022-11-02T23:56:46.035Z,1.35
2022-11-02T23:59:15.079Z,2.25
